Conger, Iowa
Current Conditions -  °F | °C
As of 3:35 AM on Wednesday 22 Oct 2014 (Local Time) from KI75 Reporting Station
Clear Clear  
Wind Chill: 42°   Ceiling: Unl
Heat Index: 46°   Visibility: 10mi
Dew Point: 40°   Wind: 8mph
Humidity: 80%   Direction: 130°SE
Pressure: 30.18"   Gusts: NA
Location:  41.2933°N, 93.7977°W
Report Text: KI75 220835Z AUTO 13007KT 10SM CLR 08/05 A3018 RMK AO2 T00770045
Loading
Personal Weather Stations






























Interactive Weather Map
Tropical Storm Tracking
New forecast layout! Learn more

10-Day Weather Forecast

Advertisements
Track Severe Weather on mobile